Terminal Aerodrome Forecast
Issued by NWS Mt. Holly, NJ

Home | Current Version | Previous Version | Text Only | Print | Product List | Glossary On
Versions: 1 2 3 4 5 6 7 8 9 10 11 12 13 14 15 16 17 18 19 20 21
000
FTUS41 KPHI 240500
TAFACY
TAF
KACY 240533Z 2406/2506 33005KT P6SM FEW040 BKN120
      TEMPO 2408/2411 5SM BR
     FM241400 34008KT P6SM BKN050
      TEMPO 2414/2418 5SM -SHRA
     FM250000 31004KT P6SM BKN250=

USA.gov is the U.S. government's official web portal to all federal, state and local government web resources and services.